sensor_id;sensor_type;location;lat;lon;timestamp;P1;durP1;ratioP1;P2;durP2;ratioP2
8825;SDS011;4449;50.872;4.714;2023-04-30T00:01:15;19.47;;;14.30;;
8825;SDS011;4449;50.872;4.714;2023-04-30T00:03:43;25.27;;;14.53;;
8825;SDS011;4449;50.872;4.714;2023-04-30T00:06:11;21.23;;;14.43;;
8825;SDS011;4449;50.872;4.714;2023-04-30T00:08:40;24.43;;;13.93;;
8825;SDS011;4449;50.872;4.714;2023-04-30T00:11:08;22.00;;;14.27;;
8825;SDS011;4449;50.872;4.714;2023-04-30T00:13:35;19.37;;;13.43;;
8825;SDS011;4449;50.872;4.714;2023-04-30T00:16:04;17.40;;;12.70;;
8825;SDS011;4449;50.872;4.714;2023-04-30T00:18:31;21.23;;;13.87;;
8825;SDS011;4449;50.872;4.714;2023-04-30T00:20:59;17.63;;;12.93;;
8825;SDS011;4449;50.872;4.714;2023-04-30T00:23:27;15.60;;;12.20;;
8825;SDS011;4449;50.872;4.714;2023-04-30T00:25:56;17.57;;;13.40;;
8825;SDS011;4449;50.872;4.714;2023-04-30T00:28:24;16.10;;;13.17;;
8825;SDS011;4449;50.872;4.714;2023-04-30T00:30:51;19.17;;;13.20;;
8825;SDS011;4449;50.872;4.714;2023-04-30T00:33:19;18.97;;;13.83;;
8825;SDS011;4449;50.872;4.714;2023-04-30T00:35:47;16.87;;;13.37;;
8825;SDS011;4449;50.872;4.714;2023-04-30T00:38:14;20.57;;;13.77;;
8825;SDS011;4449;50.872;4.714;2023-04-30T00:40:42;18.87;;;13.17;;
8825;SDS011;4449;50.872;4.714;2023-04-30T00:43:12;17.43;;;13.90;;
8825;SDS011;4449;50.872;4.714;2023-04-30T00:45:40;18.40;;;13.63;;
8825;SDS011;4449;50.872;4.714;2023-04-30T00:48:07;21.50;;;13.40;;
8825;SDS011;4449;50.872;4.714;2023-04-30T00:50:35;18.53;;;13.63;;
8825;SDS011;4449;50.872;4.714;2023-04-30T00:53:03;18.60;;;13.07;;
8825;SDS011;4449;50.872;4.714;2023-04-30T00:55:31;16.03;;;12.33;;
8825;SDS011;4449;50.872;4.714;2023-04-30T00:57:59;18.43;;;13.83;;
8825;SDS011;4449;50.872;4.714;2023-04-30T01:00:28;24.43;;;13.60;;
8825;SDS011;4449;50.872;4.714;2023-04-30T01:02:56;17.83;;;12.80;;
8825;SDS011;4449;50.872;4.714;2023-04-30T01:05:24;19.73;;;14.30;;
8825;SDS011;4449;50.872;4.714;2023-04-30T01:07:52;17.30;;;12.87;;
8825;SDS011;4449;50.872;4.714;2023-04-30T01:10:20;18.03;;;12.90;;
8825;SDS011;4449;50.872;4.714;2023-04-30T01:15:34;19.70;;;12.87;;
8825;SDS011;4449;50.872;4.714;2023-04-30T01:18:04;19.03;;;12.63;;
8825;SDS011;4449;50.872;4.714;2023-04-30T01:20:34;18.10;;;13.60;;
8825;SDS011;4449;50.872;4.714;2023-04-30T01:23:10;16.77;;;13.07;;
8825;SDS011;4449;50.872;4.714;2023-04-30T01:25:43;34.00;;;21.30;;
8825;SDS011;4449;50.872;4.714;2023-04-30T01:28:19;18.30;;;12.87;;
8825;SDS011;4449;50.872;4.714;2023-04-30T01:30:49;15.83;;;11.17;;
8825;SDS011;4449;50.872;4.714;2023-04-30T01:33:17;18.47;;;12.23;;
8825;SDS011;4449;50.872;4.714;2023-04-30T01:35:55;17.80;;;12.30;;
8825;SDS011;4449;50.872;4.714;2023-04-30T01:38:28;14.30;;;11.70;;
8825;SDS011;4449;50.872;4.714;2023-04-30T01:41:00;15.23;;;10.70;;
8825;SDS011;4449;50.872;4.714;2023-04-30T01:43:36;20.40;;;10.27;;
8825;SDS011;4449;50.872;4.714;2023-04-30T01:46:07;13.73;;;8.83;;
8825;SDS011;4449;50.872;4.714;2023-04-30T01:48:38;9.30;;;7.60;;
8825;SDS011;4449;50.872;4.714;2023-04-30T01:51:08;11.67;;;8.43;;
8825;SDS011;4449;50.872;4.714;2023-04-30T01:53:39;9.70;;;8.53;;
8825;SDS011;4449;50.872;4.714;2023-04-30T01:56:08;8.23;;;7.40;;
8825;SDS011;4449;50.872;4.714;2023-04-30T01:58:38;9.43;;;8.30;;
8825;SDS011;4449;50.872;4.714;2023-04-30T02:01:06;12.77;;;8.07;;
8825;SDS011;4449;50.872;4.714;2023-04-30T02:03:34;11.70;;;8.60;;
8825;SDS011;4449;50.872;4.714;2023-04-30T02:06:02;12.50;;;8.70;;
8825;SDS011;4449;50.872;4.714;2023-04-30T02:08:30;11.70;;;9.03;;
8825;SDS011;4449;50.872;4.714;2023-04-30T02:10:57;10.10;;;9.10;;
8825;SDS011;4449;50.872;4.714;2023-04-30T02:13:25;10.33;;;7.87;;
8825;SDS011;4449;50.872;4.714;2023-04-30T02:15:54;10.07;;;8.50;;
8825;SDS011;4449;50.872;4.714;2023-04-30T02:18:22;10.77;;;8.83;;
8825;SDS011;4449;50.872;4.714;2023-04-30T02:20:50;10.40;;;9.20;;
8825;SDS011;4449;50.872;4.714;2023-04-30T02:23:17;12.13;;;8.47;;
8825;SDS011;4449;50.872;4.714;2023-04-30T02:25:45;12.80;;;8.37;;
8825;SDS011;4449;50.872;4.714;2023-04-30T02:28:13;10.57;;;8.67;;
8825;SDS011;4449;50.872;4.714;2023-04-30T02:30:41;10.70;;;7.73;;
8825;SDS011;4449;50.872;4.714;2023-04-30T02:33:10;12.37;;;9.17;;
8825;SDS011;4449;50.872;4.714;2023-04-30T02:35:38;10.57;;;8.03;;
8825;SDS011;4449;50.872;4.714;2023-04-30T02:38:06;12.53;;;7.47;;
8825;SDS011;4449;50.872;4.714;2023-04-30T02:40:34;10.43;;;7.97;;
8825;SDS011;4449;50.872;4.714;2023-04-30T02:43:02;10.73;;;8.27;;
8825;SDS011;4449;50.872;4.714;2023-04-30T02:45:30;10.37;;;8.53;;
8825;SDS011;4449;50.872;4.714;2023-04-30T02:47:58;9.27;;;7.93;;
8825;SDS011;4449;50.872;4.714;2023-04-30T02:50:27;10.50;;;8.37;;
8825;SDS011;4449;50.872;4.714;2023-04-30T02:52:55;9.03;;;8.13;;
8825;SDS011;4449;50.872;4.714;2023-04-30T02:55:23;11.33;;;9.00;;
8825;SDS011;4449;50.872;4.714;2023-04-30T02:57:51;10.67;;;8.77;;
8825;SDS011;4449;50.872;4.714;2023-04-30T03:00:19;11.47;;;8.60;;
8825;SDS011;4449;50.872;4.714;2023-04-30T03:02:47;15.17;;;8.00;;
8825;SDS011;4449;50.872;4.714;2023-04-30T03:05:15;10.00;;;7.97;;
8825;SDS011;4449;50.872;4.714;2023-04-30T03:07:44;9.43;;;8.27;;
8825;SDS011;4449;50.872;4.714;2023-04-30T03:10:12;10.00;;;8.37;;
8825;SDS011;4449;50.872;4.714;2023-04-30T03:12:39;9.67;;;8.67;;
8825;SDS011;4449;50.872;4.714;2023-04-30T03:15:07;12.47;;;9.10;;
8825;SDS011;4449;50.872;4.714;2023-04-30T03:17:35;16.23;;;9.47;;
8825;SDS011;4449;50.872;4.714;2023-04-30T03:20:03;11.53;;;9.63;;
8825;SDS011;4449;50.872;4.714;2023-04-30T03:22:31;13.63;;;9.23;;
8825;SDS011;4449;50.872;4.714;2023-04-30T03:25:00;11.20;;;9.73;;
8825;SDS011;4449;50.872;4.714;2023-04-30T03:27:28;12.30;;;8.43;;
8825;SDS011;4449;50.872;4.714;2023-04-30T03:29:56;14.73;;;9.67;;
8825;SDS011;4449;50.872;4.714;2023-04-30T03:32:24;10.43;;;8.93;;
8825;SDS011;4449;50.872;4.714;2023-04-30T03:34:52;16.53;;;9.47;;
8825;SDS011;4449;50.872;4.714;2023-04-30T03:37:19;10.53;;;8.60;;
8825;SDS011;4449;50.872;4.714;2023-04-30T03:39:47;10.90;;;9.27;;
8825;SDS011;4449;50.872;4.714;2023-04-30T03:42:16;10.93;;;9.10;;
8825;SDS011;4449;50.872;4.714;2023-04-30T03:44:44;12.83;;;8.87;;
8825;SDS011;4449;50.872;4.714;2023-04-30T03:47:12;12.70;;;8.57;;
8825;SDS011;4449;50.872;4.714;2023-04-30T03:49:39;11.23;;;9.13;;
8825;SDS011;4449;50.872;4.714;2023-04-30T03:52:07;9.93;;;8.80;;
8825;SDS011;4449;50.872;4.714;2023-04-30T03:54:35;11.23;;;8.80;;
8825;SDS011;4449;50.872;4.714;2023-04-30T03:57:03;11.07;;;9.10;;
8825;SDS011;4449;50.872;4.714;2023-04-30T03:59:33;14.10;;;8.70;;
8825;SDS011;4449;50.872;4.714;2023-04-30T04:02:01;11.87;;;8.47;;
8825;SDS011;4449;50.872;4.714;2023-04-30T04:04:29;9.90;;;8.10;;
8825;SDS011;4449;50.872;4.714;2023-04-30T04:06:56;12.57;;;8.73;;
8825;SDS011;4449;50.872;4.714;2023-04-30T04:09:24;14.97;;;8.17;;
8825;SDS011;4449;50.872;4.714;2023-04-30T04:11:52;12.00;;;8.43;;
8825;SDS011;4449;50.872;4.714;2023-04-30T04:14:19;10.40;;;8.13;;
8825;SDS011;4449;50.872;4.714;2023-04-30T04:16:48;12.00;;;8.73;;
8825;SDS011;4449;50.872;4.714;2023-04-30T04:19:16;11.30;;;8.37;;
8825;SDS011;4449;50.872;4.714;2023-04-30T04:21:44;13.07;;;8.40;;
8825;SDS011;4449;50.872;4.714;2023-04-30T04:24:12;10.30;;;8.77;;
8825;SDS011;4449;50.872;4.714;2023-04-30T04:26:39;10.30;;;8.47;;
8825;SDS011;4449;50.872;4.714;2023-04-30T04:29:07;10.90;;;8.07;;
8825;SDS011;4449;50.872;4.714;2023-04-30T04:31:35;11.10;;;9.27;;
8825;SDS011;4449;50.872;4.714;2023-04-30T04:34:04;16.73;;;9.57;;
8825;SDS011;4449;50.872;4.714;2023-04-30T04:36:32;15.03;;;8.87;;
8825;SDS011;4449;50.872;4.714;2023-04-30T04:39:00;10.53;;;9.43;;
8825;SDS011;4449;50.872;4.714;2023-04-30T04:41:28;14.47;;;8.73;;
8825;SDS011;4449;50.872;4.714;2023-04-30T04:43:57;13.17;;;8.83;;
8825;SDS011;4449;50.872;4.714;2023-04-30T04:46:26;12.90;;;9.37;;
8825;SDS011;4449;50.872;4.714;2023-04-30T04:48:54;14.97;;;8.80;;
8825;SDS011;4449;50.872;4.714;2023-04-30T04:51:23;9.80;;;8.27;;
8825;SDS011;4449;50.872;4.714;2023-04-30T04:53:51;11.13;;;8.93;;
8825;SDS011;4449;50.872;4.714;2023-04-30T04:56:19;11.87;;;8.77;;
8825;SDS011;4449;50.872;4.714;2023-04-30T04:58:47;13.00;;;9.17;;
8825;SDS011;4449;50.872;4.714;2023-04-30T05:01:14;12.87;;;9.30;;
8825;SDS011;4449;50.872;4.714;2023-04-30T05:03:42;12.60;;;9.50;;
8825;SDS011;4449;50.872;4.714;2023-04-30T05:06:10;9.73;;;8.23;;
8825;SDS011;4449;50.872;4.714;2023-04-30T05:08:39;15.50;;;9.30;;
8825;SDS011;4449;50.872;4.714;2023-04-30T05:11:07;10.47;;;8.23;;
8825;SDS011;4449;50.872;4.714;2023-04-30T05:13:34;15.87;;;9.40;;
8825;SDS011;4449;50.872;4.714;2023-04-30T05:16:02;13.27;;;9.80;;
8825;SDS011;4449;50.872;4.714;2023-04-30T05:18:30;10.97;;;9.13;;
8825;SDS011;4449;50.872;4.714;2023-04-30T05:20:58;15.10;;;9.50;;
8825;SDS011;4449;50.872;4.714;2023-04-30T05:23:26;10.80;;;9.13;;
8825;SDS011;4449;50.872;4.714;2023-04-30T05:25:55;14.57;;;9.83;;
8825;SDS011;4449;50.872;4.714;2023-04-30T05:28:23;14.40;;;9.83;;
8825;SDS011;4449;50.872;4.714;2023-04-30T05:30:51;12.43;;;8.83;;
8825;SDS011;4449;50.872;4.714;2023-04-30T05:33:19;12.33;;;9.87;;
8825;SDS011;4449;50.872;4.714;2023-04-30T05:35:47;17.13;;;9.50;;
8825;SDS011;4449;50.872;4.714;2023-04-30T05:38:15;15.23;;;10.47;;
8825;SDS011;4449;50.872;4.714;2023-04-30T05:40:42;10.73;;;9.13;;
8825;SDS011;4449;50.872;4.714;2023-04-30T05:43:12;11.87;;;9.93;;
8825;SDS011;4449;50.872;4.714;2023-04-30T05:45:39;14.70;;;10.53;;
8825;SDS011;4449;50.872;4.714;2023-04-30T05:48:07;13.07;;;9.77;;
8825;SDS011;4449;50.872;4.714;2023-04-30T05:50:35;12.80;;;11.20;;
8825;SDS011;4449;50.872;4.714;2023-04-30T05:53:03;14.77;;;10.57;;
8825;SDS011;4449;50.872;4.714;2023-04-30T05:55:30;15.00;;;11.00;;
8825;SDS011;4449;50.872;4.714;2023-04-30T05:57:58;16.93;;;10.57;;
8825;SDS011;4449;50.872;4.714;2023-04-30T06:00:28;12.47;;;9.70;;
8825;SDS011;4449;50.872;4.714;2023-04-30T06:02:55;13.20;;;10.20;;
8825;SDS011;4449;50.872;4.714;2023-04-30T06:05:23;15.63;;;11.30;;
8825;SDS011;4449;50.872;4.714;2023-04-30T06:07:51;16.33;;;11.03;;
8825;SDS011;4449;50.872;4.714;2023-04-30T06:10:19;12.97;;;10.27;;
8825;SDS011;4449;50.872;4.714;2023-04-30T06:12:46;13.63;;;10.50;;
8825;SDS011;4449;50.872;4.714;2023-04-30T06:15:14;15.33;;;11.83;;
8825;SDS011;4449;50.872;4.714;2023-04-30T06:17:43;15.23;;;12.07;;
8825;SDS011;4449;50.872;4.714;2023-04-30T06:20:11;16.77;;;11.77;;
8825;SDS011;4449;50.872;4.714;2023-04-30T06:22:40;12.70;;;10.83;;
8825;SDS011;4449;50.872;4.714;2023-04-30T06:25:08;17.80;;;12.23;;
8825;SDS011;4449;50.872;4.714;2023-04-30T06:27:36;18.13;;;12.03;;
8825;SDS011;4449;50.872;4.714;2023-04-30T06:30:04;18.70;;;12.27;;
8825;SDS011;4449;50.872;4.714;2023-04-30T06:32:32;15.27;;;12.63;;
8825;SDS011;4449;50.872;4.714;2023-04-30T06:35:01;16.50;;;12.00;;
8825;SDS011;4449;50.872;4.714;2023-04-30T06:37:29;22.07;;;14.23;;
8825;SDS011;4449;50.872;4.714;2023-04-30T06:40:01;19.50;;;13.90;;
8825;SDS011;4449;50.872;4.714;2023-04-30T06:42:29;21.50;;;15.17;;
8825;SDS011;4449;50.872;4.714;2023-04-30T06:44:59;18.63;;;13.57;;
8825;SDS011;4449;50.872;4.714;2023-04-30T06:47:28;22.10;;;14.53;;
8825;SDS011;4449;50.872;4.714;2023-04-30T06:49:58;21.87;;;13.97;;
8825;SDS011;4449;50.872;4.714;2023-04-30T06:52:28;20.43;;;14.93;;
8825;SDS011;4449;50.872;4.714;2023-04-30T06:54:56;19.67;;;14.30;;
8825;SDS011;4449;50.872;4.714;2023-04-30T06:57:24;19.73;;;14.03;;
8825;SDS011;4449;50.872;4.714;2023-04-30T06:59:51;22.40;;;14.13;;
8825;SDS011;4449;50.872;4.714;2023-04-30T07:02:19;20.13;;;14.27;;
8825;SDS011;4449;50.872;4.714;2023-04-30T07:04:47;18.77;;;13.80;;
8825;SDS011;4449;50.872;4.714;2023-04-30T07:07:15;20.07;;;13.73;;
8825;SDS011;4449;50.872;4.714;2023-04-30T07:09:47;23.10;;;13.50;;
8825;SDS011;4449;50.872;4.714;2023-04-30T07:12:15;19.50;;;14.47;;
8825;SDS011;4449;50.872;4.714;2023-04-30T07:14:42;23.13;;;15.27;;
8825;SDS011;4449;50.872;4.714;2023-04-30T07:17:10;18.77;;;13.87;;
8825;SDS011;4449;50.872;4.714;2023-04-30T07:19:38;18.27;;;14.70;;
8825;SDS011;4449;50.872;4.714;2023-04-30T07:22:06;18.97;;;14.00;;
8825;SDS011;4449;50.872;4.714;2023-04-30T07:24:33;21.47;;;15.07;;
8825;SDS011;4449;50.872;4.714;2023-04-30T07:27:03;20.33;;;14.87;;
8825;SDS011;4449;50.872;4.714;2023-04-30T07:29:31;23.00;;;14.47;;
8825;SDS011;4449;50.872;4.714;2023-04-30T07:31:59;18.90;;;15.40;;
8825;SDS011;4449;50.872;4.714;2023-04-30T07:34:27;18.50;;;15.47;;
8825;SDS011;4449;50.872;4.714;2023-04-30T07:36:55;21.23;;;14.83;;
8825;SDS011;4449;50.872;4.714;2023-04-30T07:39:22;23.33;;;15.30;;
8825;SDS011;4449;50.872;4.714;2023-04-30T07:41:50;21.20;;;15.53;;
8825;SDS011;4449;50.872;4.714;2023-04-30T07:56:02;21.70;;;14.77;;
8825;SDS011;4449;50.872;4.714;2023-04-30T07:58:30;21.50;;;15.37;;
8825;SDS011;4449;50.872;4.714;2023-04-30T08:00:58;24.37;;;16.47;;
8825;SDS011;4449;50.872;4.714;2023-04-30T08:03:26;25.23;;;16.23;;
8825;SDS011;4449;50.872;4.714;2023-04-30T08:05:53;20.63;;;15.47;;
8825;SDS011;4449;50.872;4.714;2023-04-30T08:08:21;19.70;;;15.73;;
8825;SDS011;4449;50.872;4.714;2023-04-30T08:10:49;22.47;;;17.00;;
8825;SDS011;4449;50.872;4.714;2023-04-30T08:13:18;20.50;;;15.23;;
8825;SDS011;4449;50.872;4.714;2023-04-30T08:15:46;17.67;;;13.63;;
8825;SDS011;4449;50.872;4.714;2023-04-30T08:18:13;20.50;;;14.20;;
8825;SDS011;4449;50.872;4.714;2023-04-30T08:20:41;22.63;;;14.83;;
8825;SDS011;4449;50.872;4.714;2023-04-30T08:23:09;20.83;;;15.00;;
8825;SDS011;4449;50.872;4.714;2023-04-30T08:25:37;20.50;;;13.43;;
8825;SDS011;4449;50.872;4.714;2023-04-30T08:28:05;18.50;;;14.23;;
8825;SDS011;4449;50.872;4.714;2023-04-30T08:30:34;17.93;;;13.33;;
8825;SDS011;4449;50.872;4.714;2023-04-30T08:33:02;17.20;;;12.20;;
8825;SDS011;4449;50.872;4.714;2023-04-30T08:35:30;18.20;;;13.37;;
8825;SDS011;4449;50.872;4.714;2023-04-30T08:37:57;18.10;;;13.63;;
8825;SDS011;4449;50.872;4.714;2023-04-30T08:40:25;14.97;;;12.00;;
8825;SDS011;4449;50.872;4.714;2023-04-30T08:42:56;17.63;;;13.32;;
8825;SDS011;4449;50.872;4.714;2023-04-30T08:45:26;16.53;;;12.47;;
8825;SDS011;4449;50.872;4.714;2023-04-30T08:47:56;15.90;;;13.93;;
8825;SDS011;4449;50.872;4.714;2023-04-30T08:50:24;14.50;;;11.60;;
8825;SDS011;4449;50.872;4.714;2023-04-30T08:52:52;14.23;;;11.50;;
8825;SDS011;4449;50.872;4.714;2023-04-30T08:55:20;12.57;;;11.27;;
8825;SDS011;4449;50.872;4.714;2023-04-30T08:57:48;12.87;;;11.50;;
8825;SDS011;4449;50.872;4.714;2023-04-30T09:00:16;12.43;;;10.33;;
8825;SDS011;4449;50.872;4.714;2023-04-30T09:02:43;12.13;;;10.67;;
8825;SDS011;4449;50.872;4.714;2023-04-30T09:05:14;15.27;;;11.70;;
8825;SDS011;4449;50.872;4.714;2023-04-30T09:07:42;11.60;;;10.30;;
8825;SDS011;4449;50.872;4.714;2023-04-30T09:10:13;12.67;;;10.03;;
8825;SDS011;4449;50.872;4.714;2023-04-30T09:12:42;11.50;;;9.97;;
8825;SDS011;4449;50.872;4.714;2023-04-30T09:15:10;10.93;;;9.13;;
8825;SDS011;4449;50.872;4.714;2023-04-30T09:17:38;14.97;;;10.13;;
8825;SDS011;4449;50.872;4.714;2023-04-30T09:20:06;11.40;;;9.50;;
8825;SDS011;4449;50.872;4.714;2023-04-30T09:22:36;12.87;;;8.83;;
8825;SDS011;4449;50.872;4.714;2023-04-30T09:25:04;11.37;;;10.17;;
8825;SDS011;4449;50.872;4.714;2023-04-30T09:27:32;10.83;;;8.87;;
8825;SDS011;4449;50.872;4.714;2023-04-30T09:30:00;9.53;;;8.47;;
8825;SDS011;4449;50.872;4.714;2023-04-30T09:32:29;13.53;;;8.73;;
8825;SDS011;4449;50.872;4.714;2023-04-30T09:34:56;9.93;;;7.53;;
8825;SDS011;4449;50.872;4.714;2023-04-30T09:37:33;8.97;;;6.27;;
8825;SDS011;4449;50.872;4.714;2023-04-30T09:40:04;7.47;;;6.57;;
8825;SDS011;4449;50.872;4.714;2023-04-30T10:41:26;6.63;;;5.73;;
8825;SDS011;4449;50.872;4.714;2023-04-30T10:43:55;6.47;;;5.50;;
8825;SDS011;4449;50.872;4.714;2023-04-30T10:46:24;6.60;;;6.00;;
8825;SDS011;4449;50.872;4.714;2023-04-30T10:48:52;7.23;;;6.50;;
8825;SDS011;4449;50.872;4.714;2023-04-30T10:51:20;5.20;;;4.70;;
8825;SDS011;4449;50.872;4.714;2023-04-30T10:53:49;6.23;;;5.63;;
8825;SDS011;4449;50.872;4.714;2023-04-30T10:56:31;7.47;;;5.60;;
8825;SDS011;4449;50.872;4.714;2023-04-30T10:58:59;7.83;;;5.90;;
8825;SDS011;4449;50.872;4.714;2023-04-30T11:01:28;6.87;;;6.27;;
8825;SDS011;4449;50.872;4.714;2023-04-30T11:04:03;6.57;;;5.83;;
8825;SDS011;4449;50.872;4.714;2023-04-30T11:09:14;6.40;;;5.90;;
8825;SDS011;4449;50.872;4.714;2023-04-30T11:11:44;7.43;;;6.30;;
8825;SDS011;4449;50.872;4.714;2023-04-30T11:14:19;8.90;;;6.23;;
8825;SDS011;4449;50.872;4.714;2023-04-30T11:16:47;6.57;;;5.97;;
8825;SDS011;4449;50.872;4.714;2023-04-30T11:19:17;6.07;;;5.57;;
8825;SDS011;4449;50.872;4.714;2023-04-30T11:22:13;6.20;;;5.70;;
8825;SDS011;4449;50.872;4.714;2023-04-30T11:24:49;6.60;;;5.90;;
8825;SDS011;4449;50.872;4.714;2023-04-30T11:27:20;7.07;;;6.37;;
8825;SDS011;4449;50.872;4.714;2023-04-30T11:29:48;6.77;;;6.07;;
8825;SDS011;4449;50.872;4.714;2023-04-30T11:32:17;6.60;;;5.90;;
8825;SDS011;4449;50.872;4.714;2023-04-30T11:34:45;5.57;;;5.03;;
8825;SDS011;4449;50.872;4.714;2023-04-30T11:37:14;4.93;;;4.53;;
8825;SDS011;4449;50.872;4.714;2023-04-30T11:39:42;5.00;;;4.00;;
8825;SDS011;4449;50.872;4.714;2023-04-30T11:42:14;4.43;;;3.97;;
8825;SDS011;4449;50.872;4.714;2023-04-30T11:44:44;4.60;;;4.20;;
8825;SDS011;4449;50.872;4.714;2023-04-30T11:47:11;8.60;;;4.70;;
8825;SDS011;4449;50.872;4.714;2023-04-30T11:49:39;4.10;;;3.70;;
8825;SDS011;4449;50.872;4.714;2023-04-30T11:52:07;5.87;;;4.13;;
8825;SDS011;4449;50.872;4.714;2023-04-30T11:54:35;4.43;;;4.13;;
8825;SDS011;4449;50.872;4.714;2023-04-30T11:57:03;4.30;;;4.00;;
8825;SDS011;4449;50.872;4.714;2023-04-30T11:59:33;4.33;;;3.87;;
8825;SDS011;4449;50.872;4.714;2023-04-30T12:02:08;3.67;;;3.37;;
8825;SDS011;4449;50.872;4.714;2023-04-30T12:04:35;4.30;;;3.90;;
8825;SDS011;4449;50.872;4.714;2023-04-30T12:07:06;4.17;;;3.67;;
8825;SDS011;4449;50.872;4.714;2023-04-30T12:12:25;4.67;;;3.87;;
8825;SDS011;4449;50.872;4.714;2023-04-30T12:14:52;9.47;;;3.67;;
8825;SDS011;4449;50.872;4.714;2023-04-30T12:17:30;3.63;;;3.40;;
8825;SDS011;4449;50.872;4.714;2023-04-30T12:19:58;3.77;;;3.40;;
8825;SDS011;4449;50.872;4.714;2023-04-30T12:22:26;3.90;;;3.60;;
8825;SDS011;4449;50.872;4.714;2023-04-30T12:24:54;3.93;;;3.67;;
8825;SDS011;4449;50.872;4.714;2023-04-30T12:27:23;3.30;;;3.10;;
8825;SDS011;4449;50.872;4.714;2023-04-30T12:29:52;3.60;;;3.40;;
8825;SDS011;4449;50.872;4.714;2023-04-30T12:32:20;4.67;;;4.00;;
8825;SDS011;4449;50.872;4.714;2023-04-30T12:34:49;4.33;;;4.03;;
8825;SDS011;4449;50.872;4.714;2023-04-30T12:37:17;4.33;;;3.57;;
8825;SDS011;4449;50.872;4.714;2023-04-30T12:39:45;3.10;;;2.90;;
8825;SDS011;4449;50.872;4.714;2023-04-30T12:42:17;2.93;;;2.73;;
8825;SDS011;4449;50.872;4.714;2023-04-30T12:44:46;3.53;;;3.33;;
8825;SDS011;4449;50.872;4.714;2023-04-30T12:47:14;4.00;;;3.77;;
8825;SDS011;4449;50.872;4.714;2023-04-30T12:49:43;3.77;;;3.57;;
8825;SDS011;4449;50.872;4.714;2023-04-30T12:52:13;4.00;;;3.63;;
8825;SDS011;4449;50.872;4.714;2023-04-30T12:54:41;3.13;;;3.03;;
8825;SDS011;4449;50.872;4.714;2023-04-30T12:57:10;5.53;;;4.03;;
8825;SDS011;4449;50.872;4.714;2023-04-30T12:59:38;3.00;;;2.80;;
8825;SDS011;4449;50.872;4.714;2023-04-30T13:02:07;3.70;;;3.40;;
8825;SDS011;4449;50.872;4.714;2023-04-30T13:04:35;3.53;;;3.23;;
8825;SDS011;4449;50.872;4.714;2023-04-30T13:07:03;3.97;;;3.77;;
8825;SDS011;4449;50.872;4.714;2023-04-30T13:09:33;4.17;;;3.73;;
8825;SDS011;4449;50.872;4.714;2023-04-30T13:12:01;4.23;;;3.80;;
8825;SDS011;4449;50.872;4.714;2023-04-30T13:14:29;4.33;;;3.93;;
8825;SDS011;4449;50.872;4.714;2023-04-30T13:16:58;4.20;;;3.80;;
8825;SDS011;4449;50.872;4.714;2023-04-30T13:19:26;3.83;;;3.57;;
8825;SDS011;4449;50.872;4.714;2023-04-30T13:21:54;3.83;;;3.53;;
8825;SDS011;4449;50.872;4.714;2023-04-30T13:24:23;4.43;;;4.13;;
8825;SDS011;4449;50.872;4.714;2023-04-30T13:26:52;3.70;;;3.40;;
8825;SDS011;4449;50.872;4.714;2023-04-30T13:29:22;3.43;;;3.20;;
8825;SDS011;4449;50.872;4.714;2023-04-30T13:31:49;4.03;;;3.53;;
8825;SDS011;4449;50.872;4.714;2023-04-30T13:34:17;3.63;;;3.43;;
8825;SDS011;4449;50.872;4.714;2023-04-30T13:36:45;4.07;;;3.77;;
8825;SDS011;4449;50.872;4.714;2023-04-30T13:39:13;3.57;;;3.37;;
8825;SDS011;4449;50.872;4.714;2023-04-30T13:41:41;3.87;;;3.40;;
8825;SDS011;4449;50.872;4.714;2023-04-30T13:44:10;3.23;;;2.90;;
8825;SDS011;4449;50.872;4.714;2023-04-30T13:46:38;3.17;;;2.97;;
8825;SDS011;4449;50.872;4.714;2023-04-30T13:49:06;3.63;;;3.10;;
8825;SDS011;4449;50.872;4.714;2023-04-30T13:51:34;3.20;;;3.00;;
8825;SDS011;4449;50.872;4.714;2023-04-30T13:54:01;3.07;;;2.87;;
8825;SDS011;4449;50.872;4.714;2023-04-30T13:56:29;2.93;;;2.83;;
8825;SDS011;4449;50.872;4.714;2023-04-30T13:58:57;3.30;;;3.00;;
8825;SDS011;4449;50.872;4.714;2023-04-30T14:01:26;3.20;;;2.90;;
8825;SDS011;4449;50.872;4.714;2023-04-30T14:03:53;3.17;;;2.97;;
8825;SDS011;4449;50.872;4.714;2023-04-30T14:06:21;2.97;;;2.87;;
8825;SDS011;4449;50.872;4.714;2023-04-30T14:08:49;3.67;;;2.60;;
8825;SDS011;4449;50.872;4.714;2023-04-30T14:11:17;2.50;;;2.40;;
8825;SDS011;4449;50.872;4.714;2023-04-30T14:13:45;2.97;;;2.77;;
8825;SDS011;4449;50.872;4.714;2023-04-30T14:16:13;2.43;;;2.33;;
8825;SDS011;4449;50.872;4.714;2023-04-30T14:18:45;2.73;;;2.63;;
8825;SDS011;4449;50.872;4.714;2023-04-30T14:21:12;3.43;;;3.23;;
8825;SDS011;4449;50.872;4.714;2023-04-30T14:23:40;3.17;;;2.97;;
8825;SDS011;4449;50.872;4.714;2023-04-30T14:26:11;3.07;;;2.87;;
8825;SDS011;4449;50.872;4.714;2023-04-30T14:28:38;2.97;;;2.50;;
8825;SDS011;4449;50.872;4.714;2023-04-30T14:31:06;5.57;;;3.30;;
8825;SDS011;4449;50.872;4.714;2023-04-30T14:33:37;2.80;;;2.70;;
8825;SDS011;4449;50.872;4.714;2023-04-30T14:36:06;2.63;;;2.50;;
8825;SDS011;4449;50.872;4.714;2023-04-30T14:38:34;2.40;;;2.23;;
8825;SDS011;4449;50.872;4.714;2023-04-30T14:41:02;2.33;;;2.23;;
8825;SDS011;4449;50.872;4.714;2023-04-30T14:43:30;2.80;;;2.10;;
8825;SDS011;4449;50.872;4.714;2023-04-30T14:45:57;4.00;;;2.70;;
8825;SDS011;4449;50.872;4.714;2023-04-30T14:48:25;2.50;;;2.30;;
8825;SDS011;4449;50.872;4.714;2023-04-30T14:50:53;2.10;;;1.90;;
8825;SDS011;4449;50.872;4.714;2023-04-30T14:53:22;1.80;;;1.70;;
8825;SDS011;4449;50.872;4.714;2023-04-30T14:55:50;2.70;;;1.67;;
8825;SDS011;4449;50.872;4.714;2023-04-30T14:58:21;2.30;;;2.10;;
8825;SDS011;4449;50.872;4.714;2023-04-30T15:00:49;3.33;;;2.20;;
8825;SDS011;4449;50.872;4.714;2023-04-30T15:03:17;1.93;;;1.83;;
8825;SDS011;4449;50.872;4.714;2023-04-30T15:05:45;3.43;;;2.33;;
8825;SDS011;4449;50.872;4.714;2023-04-30T15:08:14;2.30;;;2.20;;
8825;SDS011;4449;50.872;4.714;2023-04-30T15:10:43;2.23;;;2.17;;
8825;SDS011;4449;50.872;4.714;2023-04-30T15:13:11;2.30;;;2.10;;
8825;SDS011;4449;50.872;4.714;2023-04-30T15:15:38;2.17;;;1.97;;
8825;SDS011;4449;50.872;4.714;2023-04-30T15:18:07;1.90;;;1.80;;
8825;SDS011;4449;50.872;4.714;2023-04-30T15:20:35;2.10;;;2.00;;
8825;SDS011;4449;50.872;4.714;2023-04-30T15:23:03;2.13;;;2.03;;
8825;SDS011;4449;50.872;4.714;2023-04-30T15:25:31;2.03;;;1.93;;
8825;SDS011;4449;50.872;4.714;2023-04-30T15:28:00;1.97;;;1.83;;
8825;SDS011;4449;50.872;4.714;2023-04-30T15:30:28;1.80;;;1.80;;
8825;SDS011;4449;50.872;4.714;2023-04-30T15:32:56;2.97;;;2.70;;
8825;SDS011;4449;50.872;4.714;2023-04-30T15:35:23;2.33;;;2.10;;
8825;SDS011;4449;50.872;4.714;2023-04-30T15:37:52;2.93;;;2.73;;
8825;SDS011;4449;50.872;4.714;2023-04-30T15:40:20;2.10;;;2.00;;
8825;SDS011;4449;50.872;4.714;2023-04-30T15:42:48;2.00;;;1.90;;
8825;SDS011;4449;50.872;4.714;2023-04-30T15:45:18;2.13;;;2.00;;
8825;SDS011;4449;50.872;4.714;2023-04-30T15:47:45;2.63;;;2.10;;
8825;SDS011;4449;50.872;4.714;2023-04-30T15:50:13;2.37;;;1.93;;
8825;SDS011;4449;50.872;4.714;2023-04-30T15:52:41;2.60;;;1.90;;
8825;SDS011;4449;50.872;4.714;2023-04-30T15:55:09;1.83;;;1.83;;
8825;SDS011;4449;50.872;4.714;2023-04-30T15:57:37;2.00;;;1.90;;
8825;SDS011;4449;50.872;4.714;2023-04-30T16:00:05;1.80;;;1.70;;
8825;SDS011;4449;50.872;4.714;2023-04-30T16:02:35;1.73;;;1.60;;
8825;SDS011;4449;50.872;4.714;2023-04-30T16:05:03;1.57;;;1.57;;
8825;SDS011;4449;50.872;4.714;2023-04-30T16:07:30;5.13;;;1.63;;
8825;SDS011;4449;50.872;4.714;2023-04-30T16:09:58;1.83;;;1.73;;
8825;SDS011;4449;50.872;4.714;2023-04-30T16:12:27;1.90;;;1.80;;
8825;SDS011;4449;50.872;4.714;2023-04-30T16:14:54;1.90;;;1.80;;
8825;SDS011;4449;50.872;4.714;2023-04-30T16:17:23;1.90;;;1.80;;
8825;SDS011;4449;50.872;4.714;2023-04-30T16:19:52;2.30;;;2.20;;
8825;SDS011;4449;50.872;4.714;2023-04-30T16:22:20;1.90;;;1.90;;
8825;SDS011;4449;50.872;4.714;2023-04-30T16:24:47;4.37;;;4.03;;
8825;SDS011;4449;50.872;4.714;2023-04-30T16:27:15;4.00;;;3.80;;
8825;SDS011;4449;50.872;4.714;2023-04-30T16:29:43;2.37;;;2.20;;